createdAt,value
2023-05-15T00:02:14.406Z,70.9
2023-05-15T00:07:20.700Z,71.1
2023-05-15T00:12:27.118Z,71.4
2023-05-15T00:17:54.626Z,71.1
2023-05-15T00:22:41.103Z,71.3
2023-05-15T00:27:47.527Z,71.3
2023-05-15T00:33:49.973Z,71.3
2023-05-15T00:38:24.315Z,71.5
2023-05-15T00:48:03.044Z,71.5
2023-05-15T00:53:19.621Z,71.5
2023-05-15T01:03:32.490Z,71.8
2023-05-15T01:08:38.798Z,71.9
2023-05-15T01:29:05.554Z,72.0
2023-05-15T01:39:26.332Z,72.2
2023-05-15T01:44:14.699Z,72.2
2023-05-15T01:49:31.079Z,72.2
2023-05-15T01:54:37.487Z,72.3
2023-05-15T01:59:44.983Z,72.5
2023-05-15T02:05:15.409Z,72.7
2023-05-15T02:25:57.679Z,72.8
2023-05-15T02:31:03.680Z,72.8
2023-05-15T02:41:40.214Z,73.2
2023-05-15T02:57:00.397Z,72.4
2023-05-15T03:02:46.718Z,72.6
2023-05-15T03:07:13.017Z,72.6
2023-05-15T03:12:59.130Z,73.7
2023-05-15T03:17:25.443Z,73.1
2023-05-15T03:22:52.833Z,73.3
2023-05-15T03:27:42.490Z,73.3
2023-05-15T03:32:48.910Z,73.5
2023-05-15T03:39:17.547Z,73.2
2023-05-15T03:43:01.775Z,73.5
2023-05-15T03:48:31.342Z,73.6
2023-05-15T03:53:37.713Z,73.7
2023-05-15T03:58:44.151Z,73.9
2023-05-15T04:03:30.529Z,73.8
2023-05-15T04:09:21.113Z,74.0
2023-05-15T04:13:43.959Z,74.0
2023-05-15T04:19:14.529Z,75.8
2023-05-15T04:23:56.779Z,75.7
2023-05-15T04:29:23.212Z,74.7
2023-05-15T04:49:28.877Z,75.5
2023-05-15T04:54:55.271Z,75.6
2023-05-15T04:59:41.647Z,75.5
2023-05-15T05:04:48.105Z,75.6
2023-05-15T05:15:21.155Z,74.6
2023-05-15T05:35:50.734Z,75.0
2023-05-15T05:40:33.135Z,76.5
2023-05-15T05:45:43.070Z,75.7
2023-05-15T05:51:13.517Z,75.9
2023-05-15T05:55:55.823Z,75.9
2023-05-15T06:02:00.380Z,75.4
2023-05-15T06:06:08.571Z,75.9
2023-05-15T06:11:14.987Z,75.5
2023-05-15T06:16:21.345Z,76.3
2023-05-15T06:21:17.780Z,76.3
2023-05-15T06:26:37.814Z,75.9
2023-05-15T06:41:56.943Z,76.7
2023-05-15T06:47:03.531Z,77.3
2023-05-15T06:52:13.795Z,76.8
2023-05-15T06:57:16.171Z,76.8
2023-05-15T07:02:24.659Z,76.7
2023-05-15T07:07:21.080Z,76.7
2023-05-15T07:17:42.960Z,77.6
2023-05-15T07:28:20.823Z,78.0
2023-05-15T07:33:03.079Z,77.6
2023-05-15T07:38:09.501Z,77.0
2023-05-15T07:43:35.912Z,77.1
2023-05-15T07:48:22.401Z,77.0
2023-05-15T07:53:28.846Z,77.5
2023-05-15T07:58:35.283Z,77.4
2023-05-15T08:03:41.820Z,78.1
2023-05-15T08:09:02.115Z,78.3
2023-05-15T08:13:54.455Z,78.4
2023-05-15T08:19:00.848Z,78.9
2023-05-15T08:24:27.318Z,78.7
2023-05-15T08:29:13.667Z,79.7
2023-05-15T08:34:58.153Z,78.8
2023-05-15T08:39:16.432Z,78.6
2023-05-15T08:44:32.830Z,78.7
2023-05-15T08:59:41.949Z,78.1
2023-05-15T09:04:58.370Z,78.1
2023-05-15T09:10:04.896Z,78.0
2023-05-15T09:15:11.810Z,77.8
2023-05-15T09:20:18.383Z,78.5
2023-05-15T09:25:25.600Z,80.6
2023-05-15T09:30:31.636Z,81.1
2023-05-15T09:35:38.029Z,81.0
2023-05-15T09:40:44.442Z,79.4
2023-05-15T09:45:50.871Z,77.8
2023-05-15T09:50:57.406Z,76.1
2023-05-15T09:56:03.988Z,74.8
2023-05-15T10:01:30.424Z,72.2
2023-05-15T10:06:16.818Z,71.8
2023-05-15T10:11:23.131Z,70.5
2023-05-15T10:16:53.533Z,69.0
2023-05-15T10:21:59.985Z,68.1
2023-05-15T10:27:06.381Z,65.6
2023-05-15T10:31:49.103Z,66.0
2023-05-15T10:37:19.364Z,64.5
2023-05-15T10:42:01.682Z,63.4
2023-05-15T10:47:08.092Z,62.4
2023-05-15T10:52:34.495Z,62.1
2023-05-15T10:57:20.842Z,60.1
2023-05-15T11:02:27.282Z,60.1
2023-05-15T11:07:33.598Z,60.2
2023-05-15T11:12:40.044Z,59.5
2023-05-15T11:17:46.623Z,59.8
2023-05-15T11:22:42.909Z,59.6
2023-05-15T11:27:59.339Z,58.7
2023-05-15T11:33:25.766Z,57.3
2023-05-15T11:43:18.477Z,56.2
2023-05-15T11:48:24.953Z,56.0
2023-05-15T11:58:27.916Z,56.2
2023-05-15T12:03:48.040Z,54.7
2023-05-15T12:08:54.287Z,56.0
2023-05-15T12:14:44.786Z,56.6
2023-05-15T12:19:07.142Z,57.1
2023-05-15T12:24:08.082Z,56.4
2023-05-15T12:29:20.044Z,55.9
2023-05-15T12:34:16.495Z,56.3
2023-05-15T12:44:39.330Z,55.4
2023-05-15T12:49:45.737Z,56.0
2023-05-15T12:54:52.139Z,56.2
2023-05-15T12:59:48.674Z,56.7
2023-05-15T13:05:29.085Z,57.0
2023-05-15T13:15:17.964Z,57.4
2023-05-15T13:20:44.387Z,57.2
2023-05-15T13:25:20.875Z,57.9
2023-05-15T13:30:27.560Z,57.5
2023-05-15T13:35:47.290Z,57.4
2023-05-15T13:40:43.836Z,57.6
2023-05-15T13:46:03.802Z,51.8
2023-05-15T13:51:38.271Z,53.8
2023-05-15T13:56:16.598Z,55.5
2023-05-15T14:07:37.879Z,57.1
2023-05-15T14:17:43.637Z,56.2
2023-05-15T14:32:43.670Z,57.0
2023-05-15T14:37:54.027Z,57.3
2023-05-15T14:43:39.073Z,57.7
2023-05-15T14:48:05.598Z,58.0
2023-05-15T14:53:02.940Z,58.4
2023-05-15T14:58:19.335Z,59.4
2023-05-15T15:04:00.864Z,59.1
2023-05-15T15:09:08.179Z,59.3
2023-05-15T15:14:14.561Z,59.3
2023-05-15T15:19:11.180Z,59.4
2023-05-15T15:24:17.580Z,59.8
2023-05-15T15:29:33.986Z,59.8
2023-05-15T15:39:46.771Z,60.3
2023-05-15T15:44:53.152Z,60.7
2023-05-15T15:49:59.616Z,61.0
2023-05-15T15:55:06.013Z,61.5
2023-05-15T16:00:12.497Z,61.7
2023-05-15T16:05:18.907Z,62.0
2023-05-15T16:10:25.253Z,62.6
2023-05-15T16:15:24.046Z,62.9
2023-05-15T16:20:38.203Z,63.3
2023-05-15T16:25:44.381Z,63.5
2023-05-15T16:30:51.368Z,64.1
2023-05-15T16:35:57.315Z,63.9
2023-05-15T16:46:10.118Z,64.6
2023-05-15T16:51:40.509Z,64.5
2023-05-15T16:56:24.409Z,64.7
2023-05-15T17:01:30.794Z,64.6
2023-05-15T17:06:37.183Z,64.6
2023-05-15T17:11:33.582Z,64.8
2023-05-15T17:16:40.021Z,65.1
2023-05-15T17:21:56.339Z,65.2
2023-05-15T17:27:02.743Z,65.6
2023-05-15T17:32:09.316Z,65.4
2023-05-15T17:42:13.154Z,66.0
2023-05-15T17:47:49.655Z,66.3
2023-05-15T17:52:35.896Z,66.9
2023-05-15T17:57:42.329Z,67.4
2023-05-15T18:02:48.855Z,67.7
2023-05-15T18:07:45.778Z,67.6
2023-05-15T18:13:36.306Z,67.9
2023-05-15T18:18:43.708Z,68.0
2023-05-15T18:23:50.059Z,68.4
2023-05-15T18:28:56.543Z,68.2
2023-05-15T18:34:04.372Z,67.9
2023-05-15T18:39:10.997Z,68.4
2023-05-15T18:44:17.961Z,68.6
2023-05-15T18:49:24.309Z,68.8
2023-05-15T18:54:50.778Z,69.0
2023-05-15T18:59:37.125Z,69.1
2023-05-15T19:04:33.469Z,69.3
2023-05-15T19:10:05.056Z,69.1
2023-05-15T19:15:17.669Z,69.5
2023-05-15T19:25:10.386Z,69.9
2023-05-15T19:35:23.155Z,69.8
2023-05-15T19:40:53.670Z,70.0
2023-05-15T19:51:06.587Z,70.2
2023-05-15T19:55:38.878Z,70.3
2023-05-15T20:01:19.345Z,70.7
2023-05-15T20:11:08.016Z,70.9
2023-05-15T20:16:14.458Z,71.4
2023-05-15T20:21:40.816Z,71.6
2023-05-15T20:26:47.784Z,71.5
2023-05-15T20:36:40.483Z,71.2
2023-05-15T20:41:46.868Z,71.6
2023-05-15T20:46:53.294Z,71.4
2023-05-15T20:51:59.654Z,71.7
2023-05-15T20:57:06.158Z,71.7
2023-05-15T21:02:12.568Z,71.9
2023-05-15T21:07:18.921Z,71.9
2023-05-15T21:12:25.311Z,71.9
2023-05-15T21:17:45.795Z,71.9
2023-05-15T21:27:44.480Z,71.9
2023-05-15T21:33:59.053Z,71.9
2023-05-15T21:38:40.352Z,71.9
2023-05-15T21:43:28.713Z,72.0
2023-05-15T21:48:45.092Z,72.2
2023-05-15T21:53:51.487Z,72.1
2023-05-15T21:59:21.911Z,72.3
2023-05-15T22:09:24.886Z,72.5
2023-05-15T22:34:44.332Z,72.7
2023-05-15T22:39:50.764Z,72.9
2023-05-15T22:44:57.171Z,72.8
2023-05-15T22:50:03.515Z,73.1
2023-05-15T22:55:13.472Z,72.9
2023-05-15T23:00:19.846Z,73.1
2023-05-15T23:05:30.206Z,73.4
2023-05-15T23:10:32.673Z,73.5
2023-05-15T23:15:54.166Z,73.4
2023-05-15T23:20:46.541Z,73.4
2023-05-15T23:25:42.959Z,73.6
2023-05-15T23:31:13.412Z,74.0
2023-05-15T23:36:05.687Z,74.7
2023-05-15T23:41:12.100Z,75.0
2023-05-15T23:46:18.851Z,75.1
2023-05-15T23:51:15.031Z,75.9
2023-05-15T23:56:51.501Z,74.8
